To NAV CANADA Home Page Login to a new session Search on AWWS site Feedback and Comments Disclaimer Vers la page française équivalente Tips FAQ What's new on the site To the Forecasts and Observations / NOTAM section To "File a Flight Plan" website Publications and other links Update of the User's profile FIC Telephone Numbers My Weather Data Folder Route Weather Data Regional Weather Data Local Weather Data To the Forecasts and Observations / NOTAM section
Request Generated 07/23/2016 at 21:10:39 UTC . Weather information available at that time is displayed.

METAR/TAF

KITCHENER/WATERLOO/ON    (show WxCam)

METAR CYKF 232100Z AUTO 31011G17KT 280V350 9SM CLR 31/12 A2995 RMK
SLP138 DENSITY ALT 3100FT=
METAR CYKF 232000Z AUTO 32010KT 9SM FEW075 32/11 A2996 RMK SLP140
DENSITY ALT 3100FT=
METAR CYKF 231900Z AUTO 30008G17KT 250V320 9SM FEW070 31/12 A2996 RMK
SLP139 DENSITY ALT 3000FT=

TAF CYKF 231938Z 2320/2404 30012KT P6SM FEW060
BECMG 2400/2402 36007KT
RMK FCST BASED ON AUTO OBS. NXT FCST BY 240200Z=
Your time UTC time
Weather data provided by Environment Canada and NAV CANADA